createdAt,value
2023-03-31T00:01:01.133Z,3.41
2023-03-31T00:02:05.237Z,3.41
2023-03-31T00:03:07.353Z,3.41
2023-03-31T00:04:10.658Z,3.39
2023-03-31T00:05:12.925Z,3.38
2023-03-31T00:06:15.862Z,3.36
2023-03-31T00:07:19.566Z,3.35
2023-03-31T00:08:21.788Z,3.35
2023-03-31T00:09:24.183Z,3.34
2023-03-31T00:11:38.202Z,3.45
2023-03-31T00:12:40.469Z,3.31
2023-03-31T00:13:42.545Z,3.33
2023-03-31T00:14:44.688Z,3.34
2023-03-31T00:15:46.696Z,3.35
2023-03-31T00:16:48.753Z,3.35
2023-03-31T00:17:51.108Z,3.36
2023-03-31T00:18:53.334Z,3.35
2023-03-31T00:19:55.775Z,3.35
2023-03-31T00:21:16.017Z,3.33
2023-03-31T00:22:18.557Z,3.31
2023-03-31T00:23:20.767Z,3.32
2023-03-31T00:24:22.774Z,3.32
2023-03-31T00:25:24.826Z,3.30
2023-03-31T00:26:28.026Z,3.34
2023-03-31T00:27:31.131Z,3.37
2023-03-31T00:28:33.283Z,3.40
2023-03-31T00:29:35.607Z,3.41
2023-03-31T00:30:38.323Z,3.41
2023-03-31T00:31:40.535Z,3.42
2023-03-31T00:32:43.768Z,3.41
2023-03-31T00:33:46.211Z,3.39
2023-03-31T00:34:48.361Z,3.40
2023-03-31T00:35:53.591Z,3.39
2023-03-31T00:36:56.134Z,3.39
2023-03-31T00:37:58.463Z,3.36
2023-03-31T00:39:03.394Z,3.41
2023-03-31T00:40:07.210Z,3.41
2023-03-31T00:41:09.546Z,3.39
2023-03-31T00:42:11.915Z,3.40
2023-03-31T00:43:29.899Z,3.41
2023-03-31T00:44:32.289Z,3.38
2023-03-31T00:45:34.806Z,3.38
2023-03-31T00:46:44.042Z,3.39
2023-03-31T00:48:58.419Z,3.53
2023-03-31T00:50:00.746Z,3.39
2023-03-31T00:51:06.897Z,3.38
2023-03-31T00:52:15.736Z,3.42
2023-03-31T00:53:21.572Z,3.41
2023-03-31T00:54:26.732Z,3.42
2023-03-31T00:56:44.472Z,3.59
2023-03-31T00:57:48.096Z,3.42
2023-03-31T00:58:50.408Z,3.44
2023-03-31T00:59:56.130Z,3.46
2023-03-31T01:01:01.573Z,3.47
2023-03-31T01:02:04.452Z,3.49
2023-03-31T01:03:08.318Z,3.48
2023-03-31T01:04:13.502Z,3.49
2023-03-31T01:05:16.174Z,3.51
2023-03-31T01:06:19.074Z,3.53
2023-03-31T01:08:50.880Z,3.65
2023-03-31T01:09:56.862Z,3.48
2023-03-31T01:12:17.175Z,3.64
2023-03-31T01:13:22.413Z,3.51
2023-03-31T01:14:25.567Z,3.51
2023-03-31T01:15:27.789Z,3.55
2023-03-31T01:16:29.843Z,3.58
2023-03-31T01:17:33.116Z,3.52
2023-03-31T01:18:35.872Z,3.58
2023-03-31T01:20:04.887Z,3.59
2023-03-31T01:21:28.094Z,3.59
2023-03-31T01:23:03.238Z,3.63
2023-03-31T01:24:33.437Z,3.63
2023-03-31T01:27:27.676Z,3.79
2023-03-31T01:28:34.924Z,3.65
2023-03-31T01:30:02.554Z,3.68
2023-03-31T01:31:43.213Z,3.67
2023-03-31T01:32:49.151Z,3.67
2023-03-31T01:34:01.307Z,3.70
2023-03-31T01:36:58.519Z,3.83
2023-03-31T01:38:39.310Z,3.63
2023-03-31T01:39:54.203Z,3.66
2023-03-31T01:44:03.527Z,3.78
2023-03-31T01:45:21.450Z,3.63
2023-03-31T01:46:39.496Z,3.68
2023-03-31T01:48:00.493Z,3.69
2023-03-31T01:49:29.456Z,3.73
2023-03-31T01:52:31.570Z,3.88
2023-03-31T01:53:37.580Z,3.67
2023-03-31T01:54:56.040Z,3.66
2023-03-31T01:56:19.652Z,3.67
2023-03-31T01:57:40.822Z,3.64
2023-03-31T01:58:56.082Z,3.65
2023-03-31T02:00:10.376Z,3.65
2023-03-31T02:01:19.218Z,3.67
2023-03-31T02:02:34.773Z,3.63
2023-03-31T02:03:40.671Z,3.63
2023-03-31T02:04:49.538Z,3.60
2023-03-31T02:07:15.906Z,3.67
2023-03-31T02:09:52.825Z,3.63
2023-03-31T02:10:56.901Z,3.47
2023-03-31T02:12:02.163Z,3.51
2023-03-31T02:13:06.552Z,3.53
2023-03-31T02:14:12.329Z,3.52
2023-03-31T02:15:18.809Z,3.51
2023-03-31T02:16:24.833Z,3.50
2023-03-31T02:17:28.085Z,3.51
2023-03-31T02:18:33.524Z,3.49
2023-03-31T02:19:39.331Z,3.50
2023-03-31T02:20:44.102Z,3.50
2023-03-31T02:21:50.427Z,3.47
2023-03-31T02:22:57.044Z,3.48
2023-03-31T02:24:02.977Z,3.46
2023-03-31T02:25:09.765Z,3.44
2023-03-31T02:27:36.828Z,3.58
2023-03-31T02:28:40.349Z,3.44
2023-03-31T02:29:43.042Z,3.47
2023-03-31T02:31:18.288Z,3.47
2023-03-31T02:32:40.898Z,3.49
2023-03-31T02:33:43.760Z,3.51
2023-03-31T02:34:46.217Z,3.51
2023-03-31T02:35:48.555Z,3.53
2023-03-31T02:36:51.180Z,3.55
2023-03-31T02:37:53.374Z,3.58
2023-03-31T02:40:13.894Z,3.64
2023-03-31T02:41:16.325Z,3.48
2023-03-31T02:42:19.680Z,3.48
2023-03-31T02:43:23.898Z,3.46
2023-03-31T02:44:26.668Z,3.47
2023-03-31T02:45:47.220Z,3.49
2023-03-31T02:46:50.002Z,3.49
2023-03-31T02:47:52.903Z,3.52
2023-03-31T02:48:58.355Z,3.50
2023-03-31T02:50:03.771Z,3.50
2023-03-31T02:51:13.936Z,3.51
2023-03-31T02:52:35.498Z,3.53
2023-03-31T02:55:40.841Z,3.69
2023-03-31T02:57:03.958Z,3.54
2023-03-31T02:58:10.336Z,3.59
2023-03-31T02:59:28.232Z,3.58
2023-03-31T03:00:34.119Z,3.57
2023-03-31T03:01:56.815Z,3.54
2023-03-31T03:03:19.244Z,3.56
2023-03-31T03:04:40.611Z,3.57
2023-03-31T03:06:05.480Z,3.58
2023-03-31T03:08:55.164Z,3.71
2023-03-31T03:10:01.230Z,3.54
2023-03-31T03:11:13.422Z,3.55
2023-03-31T03:12:19.391Z,3.56
2023-03-31T03:13:33.961Z,3.58
2023-03-31T03:14:42.595Z,3.61
2023-03-31T03:15:57.817Z,3.59
2023-03-31T03:17:09.867Z,3.58
2023-03-31T03:18:13.653Z,3.62
2023-03-31T03:19:19.939Z,3.60
2023-03-31T03:20:22.394Z,3.63
2023-03-31T03:21:25.165Z,3.61
2023-03-31T03:22:27.312Z,3.62
2023-03-31T03:23:29.503Z,3.61
2023-03-31T03:24:31.562Z,3.60
2023-03-31T03:25:33.723Z,3.56
2023-03-31T03:26:35.846Z,3.57
2023-03-31T03:27:38.482Z,3.56
2023-03-31T03:28:40.560Z,3.55
2023-03-31T03:29:42.656Z,3.53
2023-03-31T03:30:45.845Z,3.52
2023-03-31T03:31:48.205Z,3.52
2023-03-31T03:32:50.369Z,3.51
2023-03-31T03:33:53.092Z,3.50
2023-03-31T03:34:55.522Z,3.46
2023-03-31T03:35:57.643Z,3.42
2023-03-31T03:37:00.381Z,3.42
2023-03-31T03:38:02.447Z,3.40
2023-03-31T03:39:06.960Z,3.41
2023-03-31T03:40:10.874Z,3.40
2023-03-31T03:41:12.944Z,3.40
2023-03-31T03:42:15.052Z,3.40
2023-03-31T03:43:17.066Z,3.40
2023-03-31T03:44:19.199Z,3.40
2023-03-31T03:45:21.697Z,3.40
2023-03-31T03:46:24.244Z,3.41
2023-03-31T03:47:27.516Z,3.40
2023-03-31T03:48:30.270Z,3.41
2023-03-31T03:49:32.429Z,3.40
2023-03-31T03:50:36.314Z,3.41
2023-03-31T03:51:38.595Z,3.40
2023-03-31T03:52:40.814Z,3.39
2023-03-31T03:53:42.883Z,3.40
2023-03-31T03:54:45.000Z,3.39
2023-03-31T03:55:47.061Z,3.39
2023-03-31T03:56:49.554Z,3.40
2023-03-31T03:57:51.975Z,3.37
2023-03-31T03:58:54.791Z,3.37
2023-03-31T03:59:56.949Z,3.36
2023-03-31T04:00:59.012Z,3.36
2023-03-31T04:02:01.160Z,3.38
2023-03-31T04:03:03.716Z,3.37
2023-03-31T04:04:06.362Z,3.37
2023-03-31T04:05:09.159Z,3.36
2023-03-31T04:06:11.506Z,3.36
2023-03-31T04:07:13.660Z,3.34
2023-03-31T04:08:17.155Z,3.37
2023-03-31T04:09:19.389Z,3.35
2023-03-31T04:10:21.563Z,3.36
2023-03-31T04:11:23.650Z,3.36
2023-03-31T04:12:25.707Z,3.35
2023-03-31T04:13:28.361Z,3.36
2023-03-31T04:14:30.562Z,3.34
2023-03-31T04:15:33.040Z,3.33
2023-03-31T04:16:35.879Z,3.32
2023-03-31T04:17:38.103Z,3.29
2023-03-31T04:18:40.353Z,3.29
2023-03-31T04:19:42.534Z,3.31
2023-03-31T04:20:45.198Z,3.32
2023-03-31T04:21:47.755Z,3.31
2023-03-31T04:22:49.931Z,3.31
2023-03-31T04:23:55.054Z,3.30
2023-03-31T04:24:56.974Z,3.28
2023-03-31T04:25:59.371Z,3.28
2023-03-31T04:27:01.443Z,3.28
2023-03-31T04:28:03.738Z,3.27
2023-03-31T04:29:06.923Z,3.26
2023-03-31T04:30:10.771Z,3.27
2023-03-31T04:31:14.679Z,3.27
2023-03-31T04:32:17.083Z,3.25
2023-03-31T04:33:19.252Z,3.25
2023-03-31T04:34:21.383Z,3.23
2023-03-31T04:35:25.916Z,3.23
2023-03-31T04:36:28.802Z,3.23
2023-03-31T04:37:31.040Z,3.23
2023-03-31T04:38:33.498Z,3.26
2023-03-31T04:39:35.690Z,3.25
2023-03-31T04:40:37.594Z,3.26
2023-03-31T04:41:39.701Z,3.27
2023-03-31T04:42:42.877Z,3.28
2023-03-31T04:43:45.042Z,3.28
2023-03-31T04:44:47.135Z,3.27
2023-03-31T04:45:49.371Z,3.27
2023-03-31T04:46:51.567Z,3.29
2023-03-31T04:47:54.076Z,3.29
2023-03-31T04:48:56.292Z,3.30
2023-03-31T04:49:58.402Z,3.30
2023-03-31T04:51:01.114Z,3.30
2023-03-31T04:52:03.372Z,3.31
2023-03-31T04:53:05.531Z,3.30
2023-03-31T04:54:07.631Z,3.32
2023-03-31T04:55:09.887Z,3.35
2023-03-31T04:56:12.572Z,3.35
2023-03-31T04:57:14.808Z,3.35
2023-03-31T04:58:17.587Z,3.35
2023-03-31T04:59:19.677Z,3.35
2023-03-31T05:00:22.366Z,3.36
2023-03-31T05:01:24.615Z,3.36
2023-03-31T05:02:27.697Z,3.38
2023-03-31T05:03:29.932Z,3.38
2023-03-31T05:04:32.544Z,3.39
2023-03-31T05:05:35.454Z,3.41
2023-03-31T05:06:37.695Z,3.43
2023-03-31T05:07:39.874Z,3.45
2023-03-31T05:08:42.632Z,3.47
2023-03-31T05:09:45.309Z,3.45
2023-03-31T05:10:47.394Z,3.46
2023-03-31T05:11:50.009Z,3.46
2023-03-31T05:12:52.244Z,3.45
2023-03-31T05:13:54.698Z,3.46
2023-03-31T05:14:56.770Z,3.46
2023-03-31T05:16:00.716Z,3.47
2023-03-31T05:17:03.068Z,3.49
2023-03-31T05:18:06.606Z,3.50
2023-03-31T05:19:08.879Z,3.52
2023-03-31T05:20:12.827Z,3.54
2023-03-31T05:21:17.733Z,3.54
2023-03-31T05:22:19.915Z,3.57
2023-03-31T05:23:22.650Z,3.58
2023-03-31T05:24:25.005Z,3.60
2023-03-31T05:25:27.786Z,3.62
2023-03-31T05:26:30.413Z,3.64
2023-03-31T05:27:32.971Z,3.64
2023-03-31T05:28:36.227Z,3.66
2023-03-31T05:29:38.825Z,3.65
2023-03-31T05:30:40.989Z,3.67
2023-03-31T05:31:44.390Z,3.69
2023-03-31T05:32:46.628Z,3.71
2023-03-31T05:33:49.210Z,3.71
2023-03-31T05:34:52.250Z,3.72
2023-03-31T05:35:54.547Z,3.73
2023-03-31T05:36:57.883Z,3.74
2023-03-31T05:37:59.863Z,3.77
2023-03-31T05:39:01.879Z,3.78
2023-03-31T05:40:04.887Z,3.81
2023-03-31T05:41:07.819Z,3.81
2023-03-31T05:42:09.956Z,3.82
2023-03-31T05:43:12.227Z,3.86
2023-03-31T05:44:14.625Z,3.87
2023-03-31T05:45:16.783Z,3.90
2023-03-31T05:46:18.969Z,3.91
2023-03-31T05:47:22.205Z,3.94
2023-03-31T05:48:24.319Z,3.96
2023-03-31T05:49:26.398Z,3.96
2023-03-31T05:50:28.687Z,3.97
2023-03-31T05:51:31.384Z,3.98
2023-03-31T05:52:34.096Z,4.00
2023-03-31T05:53:36.659Z,4.02
2023-03-31T05:54:38.818Z,4.02
2023-03-31T05:55:40.907Z,4.03
2023-03-31T05:56:42.898Z,4.05
2023-03-31T05:57:45.016Z,4.04
2023-03-31T05:58:47.331Z,4.04
2023-03-31T05:59:49.395Z,4.04
2023-03-31T06:01:07.736Z,4.05
2023-03-31T06:02:12.883Z,4.05
2023-03-31T06:03:15.361Z,4.05
2023-03-31T06:04:17.635Z,4.08
2023-03-31T06:05:20.340Z,4.09
2023-03-31T06:06:23.015Z,4.08
2023-03-31T06:07:25.208Z,4.06
2023-03-31T06:08:30.414Z,4.09
2023-03-31T06:09:33.132Z,4.07
2023-03-31T06:10:37.948Z,4.08
2023-03-31T06:11:40.650Z,4.08
2023-03-31T06:12:42.803Z,4.08
2023-03-31T06:13:45.993Z,4.06
2023-03-31T06:14:48.255Z,4.05
2023-03-31T06:15:58.228Z,4.03
2023-03-31T06:17:00.482Z,4.01
2023-03-31T06:18:02.472Z,4.02
2023-03-31T06:19:04.569Z,4.01
2023-03-31T06:20:19.754Z,4.02
2023-03-31T06:21:16.950Z,4.02
2023-03-31T06:22:23.417Z,4.04
2023-03-31T06:23:27.258Z,4.01
2023-03-31T06:24:30.395Z,4.00
2023-03-31T06:25:43.860Z,4.02
2023-03-31T06:26:37.580Z,4.02
2023-03-31T06:27:39.880Z,4.00
2023-03-31T06:28:42.807Z,4.01
2023-03-31T06:29:45.676Z,4.01
2023-03-31T06:30:48.255Z,4.02
2023-03-31T06:31:50.331Z,4.03
2023-03-31T06:32:52.452Z,4.07
2023-03-31T06:33:54.671Z,4.09
2023-03-31T06:34:56.967Z,4.13
2023-03-31T06:37:08.553Z,4.29
2023-03-31T06:38:10.866Z,4.19
2023-03-31T06:39:14.137Z,4.21
2023-03-31T06:40:16.483Z,4.23
2023-03-31T06:41:19.994Z,4.24
2023-03-31T06:42:22.214Z,4.26
2023-03-31T06:43:25.179Z,4.28
2023-03-31T06:44:27.421Z,4.29
2023-03-31T06:45:30.080Z,4.29
2023-03-31T06:46:32.240Z,4.31
2023-03-31T06:47:34.365Z,4.33
2023-03-31T06:48:37.151Z,4.33
2023-03-31T06:49:40.203Z,4.34
2023-03-31T06:50:42.465Z,4.35
2023-03-31T06:51:45.212Z,4.37
2023-03-31T06:52:47.415Z,4.37
2023-03-31T06:53:49.568Z,4.38
2023-03-31T06:54:52.736Z,4.39
2023-03-31T06:57:05.647Z,4.52
2023-03-31T06:58:07.963Z,4.41
2023-03-31T06:59:10.108Z,4.42
2023-03-31T07:00:14.272Z,4.45
2023-03-31T07:01:16.458Z,4.44
2023-03-31T07:02:18.727Z,4.45
2023-03-31T07:03:22.105Z,4.46
2023-03-31T07:04:24.544Z,4.45
2023-03-31T07:05:28.337Z,4.45
2023-03-31T07:06:31.363Z,4.45
2023-03-31T07:07:34.709Z,4.46
2023-03-31T07:08:36.935Z,4.46
2023-03-31T07:09:38.898Z,4.48
2023-03-31T07:10:40.862Z,4.44
2023-03-31T07:11:43.842Z,4.46
2023-03-31T07:13:55.203Z,4.57
2023-03-31T07:14:57.782Z,4.44
2023-03-31T07:16:00.441Z,4.44
2023-03-31T07:17:03.104Z,4.44
2023-03-31T07:18:05.324Z,4.45
2023-03-31T07:19:07.781Z,4.48
2023-03-31T07:20:15.364Z,4.49
2023-03-31T07:21:17.480Z,4.49
2023-03-31T07:22:19.704Z,4.47
2023-03-31T07:23:21.694Z,4.49
2023-03-31T07:24:24.861Z,4.50
2023-03-31T07:25:27.603Z,4.51
2023-03-31T07:26:29.793Z,4.51
2023-03-31T07:27:32.092Z,4.51
2023-03-31T07:28:35.320Z,4.52
2023-03-31T07:29:37.581Z,4.51
2023-03-31T07:30:40.277Z,4.50
2023-03-31T07:31:42.968Z,4.51
2023-03-31T07:32:48.916Z,4.52
2023-03-31T07:33:51.716Z,4.55
2023-03-31T07:34:53.753Z,4.56
2023-03-31T07:36:10.070Z,4.58
2023-03-31T07:36:59.689Z,4.59
2023-03-31T07:38:02.196Z,4.60
2023-03-31T07:39:05.851Z,4.62
2023-03-31T07:40:11.864Z,4.65
2023-03-31T07:41:20.961Z,4.67
2023-03-31T07:42:23.156Z,4.70
2023-03-31T07:43:25.903Z,4.71
2023-03-31T07:44:27.957Z,4.73
2023-03-31T07:45:30.180Z,4.74
2023-03-31T07:46:32.487Z,4.74
2023-03-31T07:47:36.815Z,4.75
2023-03-31T07:48:39.325Z,4.75
2023-03-31T07:49:41.282Z,4.77
2023-03-31T07:50:43.287Z,4.79
2023-03-31T07:51:47.515Z,4.83
2023-03-31T07:52:50.814Z,4.85
2023-03-31T07:53:54.608Z,4.90
2023-03-31T07:54:56.771Z,4.91
2023-03-31T07:55:58.946Z,4.93
2023-03-31T07:57:01.719Z,4.95
2023-03-31T07:58:04.412Z,4.95
2023-03-31T07:59:06.479Z,4.96
2023-03-31T08:00:10.403Z,5.00
2023-03-31T08:01:17.878Z,5.03
2023-03-31T08:02:20.075Z,5.06
2023-03-31T08:03:22.341Z,5.09
2023-03-31T08:04:24.860Z,5.12
2023-03-31T08:05:27.759Z,5.17
2023-03-31T08:06:30.226Z,5.19
2023-03-31T08:07:38.241Z,5.21
2023-03-31T08:08:40.465Z,5.24
2023-03-31T08:09:46.696Z,5.27
2023-03-31T08:10:50.354Z,5.31
2023-03-31T08:11:53.084Z,5.35
2023-03-31T08:12:55.465Z,5.38
2023-03-31T08:13:57.668Z,5.41
2023-03-31T08:14:59.993Z,5.44
2023-03-31T08:16:03.862Z,5.47
2023-03-31T08:17:06.262Z,5.51
2023-03-31T08:18:08.834Z,5.57
2023-03-31T08:19:10.953Z,5.60
2023-03-31T08:20:14.452Z,5.64
2023-03-31T08:21:16.708Z,5.67
2023-03-31T08:22:19.160Z,5.71
2023-03-31T08:23:21.621Z,5.72
2023-03-31T08:24:23.821Z,5.76
2023-03-31T08:25:26.183Z,5.79
2023-03-31T08:26:28.334Z,5.84
2023-03-31T08:28:45.910Z,5.99
2023-03-31T08:29:48.054Z,5.92
2023-03-31T08:30:51.267Z,5.94
2023-03-31T08:31:54.594Z,5.96
2023-03-31T08:32:57.311Z,5.98
2023-03-31T08:33:59.517Z,6.01
2023-03-31T08:35:02.141Z,6.03
2023-03-31T08:36:06.784Z,6.05
2023-03-31T08:37:10.802Z,6.07
2023-03-31T08:38:12.872Z,6.07
2023-03-31T08:39:14.861Z,6.09
2023-03-31T08:40:20.114Z,6.11
2023-03-31T08:41:52.055Z,6.13
2023-03-31T08:43:11.928Z,6.14
2023-03-31T08:45:36.436Z,6.30
2023-03-31T08:46:41.222Z,6.21
2023-03-31T08:47:46.542Z,6.23
2023-03-31T08:48:52.813Z,6.23
2023-03-31T08:50:01.367Z,6.24
2023-03-31T08:52:28.587Z,6.36
2023-03-31T08:53:34.430Z,6.26
2023-03-31T08:54:45.959Z,6.27
2023-03-31T08:55:54.082Z,6.28
2023-03-31T08:56:57.861Z,6.29
2023-03-31T08:59:28.415Z,6.41
2023-03-31T09:02:04.788Z,6.44
2023-03-31T09:03:16.798Z,6.32
2023-03-31T09:04:39.732Z,6.35
2023-03-31T09:05:59.411Z,6.37
2023-03-31T09:06:59.346Z,6.40
2023-03-31T09:08:32.809Z,6.41
2023-03-31T09:10:53.334Z,6.53
2023-03-31T09:11:59.227Z,6.45
2023-03-31T09:13:26.885Z,6.47
2023-03-31T09:14:42.472Z,6.49
2023-03-31T09:17:24.636Z,6.66
2023-03-31T09:18:33.282Z,6.56
2023-03-31T09:19:40.044Z,6.59
2023-03-31T09:20:46.398Z,6.61
2023-03-31T09:21:51.955Z,6.63
2023-03-31T09:23:29.858Z,6.64
2023-03-31T09:24:36.094Z,6.67
2023-03-31T09:25:39.494Z,6.69
2023-03-31T09:26:45.818Z,6.73
2023-03-31T09:27:51.081Z,6.74
2023-03-31T09:28:56.547Z,6.77
2023-03-31T09:30:11.252Z,6.79
2023-03-31T09:31:17.002Z,6.81
2023-03-31T09:32:31.127Z,6.83
2023-03-31T09:33:33.410Z,6.84
2023-03-31T09:34:35.594Z,6.86
2023-03-31T09:35:38.302Z,6.88
2023-03-31T09:36:41.654Z,6.89
2023-03-31T09:37:44.086Z,6.90
2023-03-31T09:38:46.857Z,6.92
2023-03-31T09:39:49.715Z,6.94
2023-03-31T09:40:52.573Z,6.97
2023-03-31T09:41:55.404Z,6.98
2023-03-31T09:43:06.795Z,7.00
2023-03-31T09:45:21.656Z,7.17
2023-03-31T09:46:31.016Z,7.07
2023-03-31T09:47:37.143Z,7.10
2023-03-31T09:48:41.469Z,7.13
2023-03-31T09:49:53.903Z,7.15
2023-03-31T09:50:54.434Z,7.18
2023-03-31T09:52:04.301Z,7.22
2023-03-31T09:53:10.530Z,7.24
2023-03-31T09:54:22.788Z,7.28
2023-03-31T09:55:38.864Z,7.30
2023-03-31T09:56:36.549Z,7.34
2023-03-31T09:57:40.270Z,7.37
2023-03-31T09:58:44.911Z,7.40
2023-03-31T09:59:50.132Z,7.43
2023-03-31T10:01:07.210Z,7.48
2023-03-31T10:02:36.772Z,7.52
2023-03-31T10:03:51.287Z,7.56
2023-03-31T10:04:55.030Z,7.61
2023-03-31T10:05:57.910Z,7.65
2023-03-31T10:07:02.725Z,7.68
2023-03-31T10:08:20.648Z,7.71
2023-03-31T10:09:29.602Z,7.72
2023-03-31T10:10:33.898Z,7.75
2023-03-31T10:11:37.006Z,7.76
2023-03-31T10:12:39.602Z,7.79
2023-03-31T10:14:01.983Z,7.79
2023-03-31T10:16:36.885Z,7.95
2023-03-31T10:17:53.776Z,7.85
2023-03-31T10:18:47.991Z,7.87
2023-03-31T10:21:25.319Z,8.02
2023-03-31T10:22:32.037Z,7.94
2023-03-31T10:23:35.398Z,7.94
2023-03-31T10:25:50.976Z,8.07
2023-03-31T10:26:56.691Z,7.98
2023-03-31T10:28:02.089Z,7.99
2023-03-31T10:29:10.780Z,8.00
2023-03-31T10:31:37.276Z,8.12
2023-03-31T10:32:42.756Z,8.02
2023-03-31T10:33:48.685Z,8.04
2023-03-31T10:34:50.974Z,8.06
2023-03-31T10:35:58.459Z,8.05
2023-03-31T10:37:04.202Z,8.07
2023-03-31T10:38:16.499Z,8.08
2023-03-31T10:39:19.402Z,8.08
2023-03-31T10:40:26.160Z,8.08
2023-03-31T10:41:30.539Z,8.09
2023-03-31T10:42:33.012Z,8.11
2023-03-31T10:47:53.437Z,8.21
2023-03-31T10:48:59.863Z,8.13
2023-03-31T10:50:04.894Z,8.13
2023-03-31T10:51:23.160Z,8.13
2023-03-31T10:52:26.901Z,8.14
2023-03-31T10:53:30.286Z,8.14
2023-03-31T10:54:32.921Z,8.16
2023-03-31T10:55:44.907Z,8.18
2023-03-31T10:56:52.594Z,8.20
2023-03-31T10:57:59.973Z,8.20
2023-03-31T10:59:26.651Z,8.20
2023-03-31T11:00:41.453Z,8.23
2023-03-31T11:02:17.999Z,8.24
2023-03-31T11:03:26.027Z,8.26
2023-03-31T11:04:32.418Z,8.28
2023-03-31T11:05:53.306Z,8.29
2023-03-31T11:07:14.058Z,8.31
2023-03-31T11:08:32.311Z,8.33
2023-03-31T11:11:05.150Z,8.46
2023-03-31T11:13:44.498Z,8.47
2023-03-31T11:15:11.710Z,8.35
2023-03-31T11:16:41.650Z,8.38
2023-03-31T11:18:05.932Z,8.39
2023-03-31T11:19:31.867Z,8.41
2023-03-31T11:21:02.180Z,8.42
2023-03-31T11:23:44.230Z,8.54
2023-03-31T11:25:08.623Z,8.44
2023-03-31T11:26:14.932Z,8.46
2023-03-31T11:29:21.506Z,8.57
2023-03-31T11:30:33.604Z,8.47
2023-03-31T11:32:55.565Z,8.61
2023-03-31T11:34:17.021Z,8.49
2023-03-31T11:35:32.396Z,8.50
2023-03-31T11:36:56.280Z,8.51
2023-03-31T11:38:24.114Z,8.54
2023-03-31T11:39:42.378Z,8.55
2023-03-31T11:42:24.360Z,8.66
2023-03-31T11:43:37.101Z,8.56
2023-03-31T11:44:53.824Z,8.59
2023-03-31T11:46:12.173Z,8.60
2023-03-31T11:47:17.964Z,8.60
2023-03-31T11:49:41.177Z,8.71
2023-03-31T11:50:46.654Z,8.61
2023-03-31T11:53:19.120Z,8.74
2023-03-31T11:54:40.535Z,8.65
2023-03-31T11:55:47.032Z,8.67
2023-03-31T11:56:50.474Z,8.70
2023-03-31T11:59:19.657Z,8.80
2023-03-31T12:00:26.730Z,8.69
2023-03-31T12:03:11.474Z,8.83
2023-03-31T12:04:32.445Z,8.75
2023-03-31T12:05:41.172Z,8.77
2023-03-31T12:06:46.360Z,8.79
2023-03-31T12:07:58.381Z,8.81
2023-03-31T12:09:16.442Z,8.83
2023-03-31T12:10:22.053Z,8.85
2023-03-31T12:11:30.578Z,8.87
2023-03-31T12:12:45.551Z,8.87
2023-03-31T12:14:26.267Z,8.88
2023-03-31T12:15:46.423Z,8.88
2023-03-31T12:18:19.889Z,8.99
2023-03-31T12:19:25.742Z,8.88
2023-03-31T12:20:34.231Z,8.88
2023-03-31T12:21:39.952Z,8.89
2023-03-31T12:22:48.278Z,8.90
2023-03-31T12:23:50.507Z,8.89
2023-03-31T12:24:52.854Z,8.87
2023-03-31T12:26:08.230Z,8.91
2023-03-31T12:28:31.715Z,9.00
2023-03-31T12:29:40.708Z,8.89
2023-03-31T12:30:45.437Z,8.91
2023-03-31T12:31:52.533Z,8.91
2023-03-31T12:34:10.626Z,9.02
2023-03-31T12:36:34.483Z,9.03
2023-03-31T12:38:02.414Z,8.95
2023-03-31T12:39:20.164Z,8.95
2023-03-31T12:40:41.696Z,8.98
2023-03-31T12:42:02.341Z,9.01
2023-03-31T12:43:11.221Z,9.01
2023-03-31T12:44:37.660Z,9.03
2023-03-31T12:47:26.689Z,9.14
2023-03-31T12:48:44.673Z,9.05
2023-03-31T12:50:06.978Z,9.08
2023-03-31T12:53:03.883Z,9.21
2023-03-31T12:54:30.251Z,9.10
2023-03-31T12:55:42.198Z,9.13
2023-03-31T12:57:02.799Z,9.14
2023-03-31T12:58:27.874Z,9.15
2023-03-31T12:59:37.449Z,9.16
2023-03-31T13:00:49.525Z,9.17
2023-03-31T13:03:37.230Z,9.30
2023-03-31T13:05:48.339Z,9.31
2023-03-31T13:06:52.688Z,9.21
2023-03-31T13:07:55.411Z,9.21
2023-03-31T13:09:02.173Z,9.23
2023-03-31T13:10:20.964Z,9.23
2023-03-31T13:11:35.751Z,9.24
2023-03-31T13:12:38.032Z,9.25
2023-03-31T13:15:05.284Z,9.37
2023-03-31T13:16:07.842Z,9.26
2023-03-31T13:17:26.369Z,9.27
2023-03-31T13:18:32.344Z,9.28
2023-03-31T13:19:36.374Z,9.30
2023-03-31T13:20:41.295Z,9.31
2023-03-31T13:21:55.845Z,9.32
2023-03-31T13:23:07.367Z,9.32
2023-03-31T13:24:10.143Z,9.34
2023-03-31T13:25:31.227Z,9.35
2023-03-31T13:26:36.803Z,9.35
2023-03-31T13:27:42.559Z,9.36
2023-03-31T13:28:45.177Z,9.36
2023-03-31T13:29:47.887Z,9.37
2023-03-31T13:30:59.225Z,9.36
2023-03-31T13:32:05.048Z,9.37
2023-03-31T13:33:18.364Z,9.38
2023-03-31T13:34:21.372Z,9.38
2023-03-31T13:35:27.622Z,9.37
2023-03-31T13:36:33.932Z,9.36
2023-03-31T13:37:49.321Z,9.36
2023-03-31T13:39:07.672Z,9.36
2023-03-31T13:40:23.456Z,9.38
2023-03-31T13:41:32.272Z,9.38
2023-03-31T13:42:50.379Z,9.37
2023-03-31T13:44:18.669Z,9.37
2023-03-31T13:45:29.626Z,9.37
2023-03-31T13:46:52.244Z,9.38
2023-03-31T13:48:01.209Z,9.37
2023-03-31T13:49:13.049Z,9.36
2023-03-31T13:51:58.213Z,9.46
2023-03-31T13:53:24.222Z,9.34
2023-03-31T13:54:39.398Z,9.35
2023-03-31T13:56:14.975Z,9.35
2023-03-31T13:57:29.923Z,9.35
2023-03-31T13:58:42.055Z,9.35
2023-03-31T13:59:51.301Z,9.35
2023-03-31T14:01:26.144Z,9.34
2023-03-31T14:02:38.262Z,9.35
2023-03-31T14:03:53.458Z,9.35
2023-03-31T14:06:48.075Z,9.45
2023-03-31T14:08:00.136Z,9.33
2023-03-31T14:09:08.758Z,9.35
2023-03-31T14:11:41.386Z,9.45
2023-03-31T14:12:43.718Z,9.33
2023-03-31T14:14:04.603Z,9.35
2023-03-31T14:15:10.855Z,9.35
2023-03-31T14:16:14.881Z,9.34
2023-03-31T14:17:17.140Z,9.34
2023-03-31T14:18:25.855Z,9.34
2023-03-31T14:19:59.672Z,9.34
2023-03-31T14:21:14.467Z,9.35
2023-03-31T14:22:28.270Z,9.34
2023-03-31T14:23:51.850Z,9.34
2023-03-31T14:25:15.804Z,9.34
2023-03-31T14:26:30.799Z,9.33
2023-03-31T14:27:42.630Z,9.33
2023-03-31T14:28:57.441Z,9.31
2023-03-31T14:30:06.452Z,9.31
2023-03-31T14:31:15.108Z,9.31
2023-03-31T14:34:08.256Z,9.38
2023-03-31T14:37:01.407Z,9.33
2023-03-31T14:38:07.466Z,9.17
2023-03-31T14:39:12.259Z,9.15
2023-03-31T14:40:16.877Z,9.12
2023-03-31T14:41:21.591Z,9.10
2023-03-31T14:42:27.932Z,9.05
2023-03-31T14:43:36.944Z,9.02
2023-03-31T14:44:40.384Z,9.00
2023-03-31T14:45:42.997Z,8.95
2023-03-31T14:46:46.885Z,8.93
2023-03-31T14:47:58.188Z,8.90
2023-03-31T14:49:22.156Z,8.85
2023-03-31T14:51:43.816Z,8.89
2023-03-31T14:52:51.019Z,8.74
2023-03-31T14:54:00.837Z,8.71
2023-03-31T14:55:03.385Z,8.69
2023-03-31T14:56:09.046Z,8.68
2023-03-31T14:57:15.317Z,8.64
2023-03-31T14:59:33.599Z,8.72
2023-03-31T15:00:38.362Z,8.57
2023-03-31T15:01:40.643Z,8.56
2023-03-31T15:02:44.678Z,8.51
2023-03-31T15:03:48.390Z,8.49
2023-03-31T15:04:50.931Z,8.47
2023-03-31T15:05:56.709Z,8.45
2023-03-31T15:07:00.952Z,8.44
2023-03-31T15:09:19.002Z,8.50
2023-03-31T15:10:22.744Z,8.35
2023-03-31T15:11:27.537Z,8.34
2023-03-31T15:12:30.393Z,8.31
2023-03-31T15:13:36.641Z,8.28
2023-03-31T15:14:42.513Z,8.26
2023-03-31T15:15:45.242Z,8.22
2023-03-31T15:16:49.386Z,8.17
2023-03-31T15:17:51.675Z,8.16
2023-03-31T15:18:55.369Z,8.12
2023-03-31T15:19:59.552Z,8.08
2023-03-31T15:21:01.766Z,8.03
2023-03-31T15:22:17.846Z,8.02
2023-03-31T15:23:28.097Z,8.01
2023-03-31T15:24:31.226Z,7.98
2023-03-31T15:25:40.187Z,7.95
2023-03-31T15:27:58.169Z,8.02
2023-03-31T15:29:19.679Z,7.87
2023-03-31T15:30:24.716Z,7.86
2023-03-31T15:31:27.780Z,7.85
2023-03-31T15:32:33.878Z,7.85
2023-03-31T15:33:36.790Z,7.84
2023-03-31T15:34:39.765Z,7.83
2023-03-31T15:35:42.142Z,7.83
2023-03-31T15:36:44.698Z,7.81
2023-03-31T15:37:49.232Z,7.83
2023-03-31T15:38:57.990Z,7.80
2023-03-31T15:40:02.450Z,7.81
2023-03-31T15:42:23.157Z,7.92
2023-03-31T15:43:32.064Z,7.77
2023-03-31T15:44:45.851Z,7.78
2023-03-31T15:45:56.898Z,7.80
2023-03-31T15:47:01.456Z,7.84
2023-03-31T15:48:04.369Z,7.86
2023-03-31T15:49:21.091Z,7.88
2023-03-31T15:50:24.208Z,7.89
2023-03-31T15:51:39.994Z,7.94
2023-03-31T15:52:55.033Z,7.92
2023-03-31T15:53:57.594Z,7.91
2023-03-31T15:55:01.171Z,7.91
2023-03-31T15:56:04.371Z,7.91
2023-03-31T15:57:09.335Z,7.90
2023-03-31T15:58:15.412Z,7.90
2023-03-31T15:59:37.904Z,7.87
2023-03-31T16:01:52.240Z,7.97
2023-03-31T16:02:55.306Z,7.85
2023-03-31T16:03:58.051Z,7.86
2023-03-31T16:05:01.601Z,7.86
2023-03-31T16:06:08.837Z,7.90
2023-03-31T16:07:24.429Z,7.93
2023-03-31T16:08:42.148Z,7.98
2023-03-31T16:10:06.610Z,8.01
2023-03-31T16:12:33.282Z,8.18
2023-03-31T16:13:40.320Z,8.01
2023-03-31T16:15:01.053Z,7.98
2023-03-31T16:16:06.858Z,7.96
2023-03-31T16:17:15.764Z,8.00
2023-03-31T16:19:44.452Z,8.09
2023-03-31T16:20:53.743Z,7.99
2023-03-31T16:21:59.388Z,7.96
2023-03-31T16:23:02.167Z,7.98
2023-03-31T16:24:04.958Z,8.00
2023-03-31T16:25:13.791Z,8.01
2023-03-31T16:26:26.358Z,7.98